KSIY/SIY METAR and TAF weather

Enter ICAO airport designator
Station Type Date Time Source
KSIY METAR 2021/03/01 08:53 UTC NOAA

KSIY 010853Z AUTO 03005KT 10SM CLR M03/M07 A3016 RMK AO2 SLP234 T10281067 58009


Station Type Date Time Source
KSIY Decoded METAR 2021/03/01 08:53 UTC NOAA

MONTAGUE SISKIYOU COUNTY, CA, United States (KSIY) 41-46N 122-28W
Mar 01, 2021 - 03:53 AM EST / 2021.03.01 0853 UTC
Wind: from the NNE (030 degrees) at 6 MPH (5 KT):0
Visibility: 10 mile(s):0
Sky conditions: clear
Temperature: 27.0 F (-2.8 C)
Windchill: 19 F (-7 C):1
Dew Point: 19.9 F (-6.7 C)
Relative Humidity: 74%
Pressure (altimeter): 30.16 in. Hg (1021 hPa)
Pressure tendency: 0.03 inches (0.9 hPa) lower than three hours ago
ob: KSIY 010853Z AUTO 03005KT 10SM CLR M03/M07 A3016 RMK AO2 SLP234 T10281067 58009
cycle: 9

Station Type Date Time Source
KSIY TAF UTC NOAA

Error!

Example: see airport list